sensor_id;sensor_type;location;lat;lon;timestamp;pressure;altitude;pressure_sealevel;temperature;humidity
59588;BME280;45412;54.472;18.464;2022-08-19T00:00:31;99546.58;;;20.53;99.18
59588;BME280;45412;54.472;18.464;2022-08-19T00:03:19;99542.01;;;20.54;99.24
59588;BME280;45412;54.472;18.464;2022-08-19T00:06:07;99542.51;;;20.55;99.36
59588;BME280;45412;54.472;18.464;2022-08-19T00:08:57;99540.73;;;20.56;99.11
59588;BME280;45412;54.472;18.464;2022-08-19T00:11:47;99540.09;;;20.57;99.28
59588;BME280;45412;54.472;18.464;2022-08-19T00:14:36;99533.48;;;20.57;99.17
59588;BME280;45412;54.472;18.464;2022-08-19T00:17:25;99528.80;;;20.57;99.24
59588;BME280;45412;54.472;18.464;2022-08-19T00:20:19;99529.63;;;20.55;99.04
59588;BME280;45412;54.472;18.464;2022-08-19T00:23:09;99528.63;;;20.54;99.31
59588;BME280;45412;54.472;18.464;2022-08-19T00:25:57;99533.78;;;20.55;99.32
59588;BME280;45412;54.472;18.464;2022-08-19T00:28:46;99539.05;;;20.53;99.18
59588;BME280;45412;54.472;18.464;2022-08-19T00:31:34;99544.94;;;20.51;99.40
59588;BME280;45412;54.472;18.464;2022-08-19T00:34:25;99549.38;;;20.50;99.35
59588;BME280;45412;54.472;18.464;2022-08-19T00:37:15;99550.33;;;20.48;99.60
59588;BME280;45412;54.472;18.464;2022-08-19T00:40:06;99548.23;;;20.46;99.52
59588;BME280;45412;54.472;18.464;2022-08-19T00:42:54;99547.56;;;20.45;99.67
59588;BME280;45412;54.472;18.464;2022-08-19T00:45:42;99549.64;;;20.45;99.60
59588;BME280;45412;54.472;18.464;2022-08-19T00:48:32;99552.59;;;20.46;99.78
59588;BME280;45412;54.472;18.464;2022-08-19T00:51:21;99554.42;;;20.45;99.77
59588;BME280;45412;54.472;18.464;2022-08-19T00:54:10;99558.33;;;20.46;99.95
59588;BME280;45412;54.472;18.464;2022-08-19T00:57:01;99556.42;;;20.46;99.89
59588;BME280;45412;54.472;18.464;2022-08-19T00:59:55;99560.43;;;20.49;99.77
59588;BME280;45412;54.472;18.464;2022-08-19T01:02:49;99563.64;;;20.51;99.71
59588;BME280;45412;54.472;18.464;2022-08-19T01:05:42;99560.84;;;20.53;99.71
59588;BME280;45412;54.472;18.464;2022-08-19T01:08:31;99559.90;;;20.56;99.73
59588;BME280;45412;54.472;18.464;2022-08-19T01:11:19;99556.68;;;20.58;99.59
59588;BME280;45412;54.472;18.464;2022-08-19T01:14:08;99556.77;;;20.61;99.47
59588;BME280;45412;54.472;18.464;2022-08-19T01:16:57;99558.95;;;20.62;99.10
59588;BME280;45412;54.472;18.464;2022-08-19T01:19:48;99559.91;;;20.63;98.93
59588;BME280;45412;54.472;18.464;2022-08-19T01:22:44;99559.73;;;20.62;98.93
59588;BME280;45412;54.472;18.464;2022-08-19T01:25:59;99553.16;;;20.61;98.60
59588;BME280;45412;54.472;18.464;2022-08-19T01:28:58;99557.23;;;20.59;98.81
59588;BME280;45412;54.472;18.464;2022-08-19T01:31:48;99555.71;;;20.58;98.71
59588;BME280;45412;54.472;18.464;2022-08-19T01:34:36;99556.55;;;20.57;98.72
59588;BME280;45412;54.472;18.464;2022-08-19T01:37:24;99551.86;;;20.54;98.53
59588;BME280;45412;54.472;18.464;2022-08-19T01:40:16;99551.52;;;20.50;98.29
59588;BME280;45412;54.472;18.464;2022-08-19T01:43:05;99550.86;;;20.48;98.44
59588;BME280;45412;54.472;18.464;2022-08-19T01:45:53;99552.84;;;20.45;98.56
59588;BME280;45412;54.472;18.464;2022-08-19T01:48:43;99551.33;;;20.43;98.59
59588;BME280;45412;54.472;18.464;2022-08-19T01:51:32;99549.56;;;20.39;98.40
59588;BME280;45412;54.472;18.464;2022-08-19T01:54:27;99556.52;;;20.37;98.28
59588;BME280;45412;54.472;18.464;2022-08-19T01:57:15;99556.30;;;20.36;97.90
59588;BME280;45412;54.472;18.464;2022-08-19T02:00:09;99551.73;;;20.40;97.38
59588;BME280;45412;54.472;18.464;2022-08-19T02:02:58;99553.13;;;20.44;96.57
59588;BME280;45412;54.472;18.464;2022-08-19T02:05:46;99555.07;;;20.49;96.24
59588;BME280;45412;54.472;18.464;2022-08-19T02:08:37;99554.96;;;20.52;96.05
59588;BME280;45412;54.472;18.464;2022-08-19T02:11:30;99556.08;;;20.56;95.63
59588;BME280;45412;54.472;18.464;2022-08-19T02:14:19;99556.23;;;20.59;95.45
59588;BME280;45412;54.472;18.464;2022-08-19T02:17:07;99553.83;;;20.60;95.26
59588;BME280;45412;54.472;18.464;2022-08-19T02:19:56;99554.70;;;20.62;95.00
59588;BME280;45412;54.472;18.464;2022-08-19T02:22:44;99553.63;;;20.62;95.07
59588;BME280;45412;54.472;18.464;2022-08-19T02:25:32;99551.98;;;20.60;95.12
59588;BME280;45412;54.472;18.464;2022-08-19T02:28:20;99553.11;;;20.60;95.02
59588;BME280;45412;54.472;18.464;2022-08-19T02:31:11;99554.31;;;20.59;94.80
59588;BME280;45412;54.472;18.464;2022-08-19T02:34:00;99552.19;;;20.57;94.60
59588;BME280;45412;54.472;18.464;2022-08-19T02:36:48;99547.10;;;20.56;94.75
59588;BME280;45412;54.472;18.464;2022-08-19T02:39:38;99546.42;;;20.54;94.65
59588;BME280;45412;54.472;18.464;2022-08-19T02:42:26;99545.60;;;20.51;95.02
59588;BME280;45412;54.472;18.464;2022-08-19T02:45:14;99542.91;;;20.47;95.04
59588;BME280;45412;54.472;18.464;2022-08-19T02:48:03;99541.34;;;20.41;95.21
59588;BME280;45412;54.472;18.464;2022-08-19T02:51:04;99539.61;;;20.35;95.41
59588;BME280;45412;54.472;18.464;2022-08-19T02:53:53;99541.83;;;20.31;95.85
59588;BME280;45412;54.472;18.464;2022-08-19T02:56:43;99545.25;;;20.27;95.97
59588;BME280;45412;54.472;18.464;2022-08-19T02:59:32;99549.34;;;20.23;96.24
59588;BME280;45412;54.472;18.464;2022-08-19T03:02:20;99552.16;;;20.19;96.62
59588;BME280;45412;54.472;18.464;2022-08-19T03:05:10;99550.97;;;20.16;96.89
59588;BME280;45412;54.472;18.464;2022-08-19T03:07:57;99553.81;;;20.13;97.27
59588;BME280;45412;54.472;18.464;2022-08-19T03:10:47;99549.85;;;20.10;97.60
59588;BME280;45412;54.472;18.464;2022-08-19T03:13:35;99550.58;;;20.09;97.71
59588;BME280;45412;54.472;18.464;2022-08-19T03:16:27;99552.65;;;20.08;97.84
59588;BME280;45412;54.472;18.464;2022-08-19T03:19:23;99553.36;;;20.08;98.00
59588;BME280;45412;54.472;18.464;2022-08-19T03:22:11;99554.21;;;20.11;98.00
59588;BME280;45412;54.472;18.464;2022-08-19T03:25:00;99551.66;;;20.13;98.08
59588;BME280;45412;54.472;18.464;2022-08-19T03:27:48;99548.80;;;20.14;98.45
59588;BME280;45412;54.472;18.464;2022-08-19T03:30:44;99552.30;;;20.14;98.26
59588;BME280;45412;54.472;18.464;2022-08-19T03:33:44;99553.58;;;20.13;98.62
59588;BME280;45412;54.472;18.464;2022-08-19T03:36:32;99561.27;;;20.14;98.47
59588;BME280;45412;54.472;18.464;2022-08-19T03:39:22;99564.27;;;20.15;98.62
59588;BME280;45412;54.472;18.464;2022-08-19T03:42:11;99557.06;;;20.17;98.55
59588;BME280;45412;54.472;18.464;2022-08-19T03:45:20;99547.95;;;20.21;98.53
59588;BME280;45412;54.472;18.464;2022-08-19T03:48:08;99549.81;;;20.26;98.65
59588;BME280;45412;54.472;18.464;2022-08-19T03:50:57;99547.73;;;20.30;98.47
59588;BME280;45412;54.472;18.464;2022-08-19T03:53:46;99548.80;;;20.33;98.02
59588;BME280;45412;54.472;18.464;2022-08-19T03:56:36;99550.85;;;20.35;97.96
59588;BME280;45412;54.472;18.464;2022-08-19T03:59:35;99549.86;;;20.37;97.84
59588;BME280;45412;54.472;18.464;2022-08-19T04:02:23;99555.54;;;20.39;97.42
59588;BME280;45412;54.472;18.464;2022-08-19T04:05:12;99556.95;;;20.41;97.38
59588;BME280;45412;54.472;18.464;2022-08-19T04:08:02;99558.11;;;20.45;96.82
59588;BME280;45412;54.472;18.464;2022-08-19T04:10:50;99555.05;;;20.47;96.51
59588;BME280;45412;54.472;18.464;2022-08-19T04:13:38;99562.91;;;20.52;96.30
59588;BME280;45412;54.472;18.464;2022-08-19T04:16:28;99568.48;;;20.59;96.14
59588;BME280;45412;54.472;18.464;2022-08-19T04:19:22;99570.63;;;20.65;95.82
59588;BME280;45412;54.472;18.464;2022-08-19T04:22:10;99572.73;;;20.71;95.49
59588;BME280;45412;54.472;18.464;2022-08-19T04:24:59;99571.82;;;20.79;95.27
59588;BME280;45412;54.472;18.464;2022-08-19T04:27:47;99567.91;;;20.84;95.00
59588;BME280;45412;54.472;18.464;2022-08-19T04:30:46;99565.11;;;20.91;94.77
59588;BME280;45412;54.472;18.464;2022-08-19T04:33:35;99562.61;;;20.97;94.08
59588;BME280;45412;54.472;18.464;2022-08-19T04:36:26;99563.05;;;21.03;94.16
59588;BME280;45412;54.472;18.464;2022-08-19T04:39:18;99560.21;;;21.07;94.00
59588;BME280;45412;54.472;18.464;2022-08-19T04:42:06;99563.49;;;21.14;93.60
59588;BME280;45412;54.472;18.464;2022-08-19T04:45:18;99563.90;;;21.22;93.23
59588;BME280;45412;54.472;18.464;2022-08-19T04:48:09;99565.36;;;21.30;92.31
59588;BME280;45412;54.472;18.464;2022-08-19T04:51:13;99563.86;;;21.41;90.95
59588;BME280;45412;54.472;18.464;2022-08-19T04:54:02;99559.69;;;21.56;90.51
59588;BME280;45412;54.472;18.464;2022-08-19T04:56:52;99559.57;;;21.70;89.34
59588;BME280;45412;54.472;18.464;2022-08-19T04:59:41;99563.06;;;21.86;89.44
59588;BME280;45412;54.472;18.464;2022-08-19T05:02:29;99568.33;;;22.02;88.11
59588;BME280;45412;54.472;18.464;2022-08-19T05:05:17;99568.05;;;22.15;87.71
59588;BME280;45412;54.472;18.464;2022-08-19T05:08:07;99569.45;;;22.29;86.93
59588;BME280;45412;54.472;18.464;2022-08-19T05:10:55;99559.26;;;22.41;85.11
59588;BME280;45412;54.472;18.464;2022-08-19T05:13:46;99563.09;;;22.58;84.65
59588;BME280;45412;54.472;18.464;2022-08-19T05:16:34;99568.23;;;22.72;83.27
59588;BME280;45412;54.472;18.464;2022-08-19T05:19:23;99567.38;;;22.88;82.36
59588;BME280;45412;54.472;18.464;2022-08-19T05:22:29;99565.65;;;23.06;81.10
59588;BME280;45412;54.472;18.464;2022-08-19T05:25:22;99566.91;;;23.25;80.51
59588;BME280;45412;54.472;18.464;2022-08-19T05:28:11;99568.95;;;23.42;79.26
59588;BME280;45412;54.472;18.464;2022-08-19T05:30:59;99573.55;;;23.57;78.67
59588;BME280;45412;54.472;18.464;2022-08-19T05:33:47;99571.84;;;23.64;77.88
59588;BME280;45412;54.472;18.464;2022-08-19T05:36:39;99563.87;;;23.69;76.78
59588;BME280;45412;54.472;18.464;2022-08-19T05:39:31;99558.76;;;23.80;76.72
59588;BME280;45412;54.472;18.464;2022-08-19T05:42:23;99560.29;;;23.99;76.34
59588;BME280;45412;54.472;18.464;2022-08-19T05:45:11;99564.48;;;24.56;75.15
59588;BME280;45412;54.472;18.464;2022-08-19T05:48:00;99567.98;;;25.35;72.21
59588;BME280;45412;54.472;18.464;2022-08-19T05:50:48;99574.73;;;26.15;68.45
59588;BME280;45412;54.472;18.464;2022-08-19T05:53:38;99578.33;;;26.77;62.34
59588;BME280;45412;54.472;18.464;2022-08-19T05:56:25;99578.42;;;27.21;61.81
59588;BME280;45412;54.472;18.464;2022-08-19T05:59:15;99576.20;;;27.76;60.46
59588;BME280;45412;54.472;18.464;2022-08-19T06:02:06;99576.50;;;28.22;56.54
59588;BME280;45412;54.472;18.464;2022-08-19T06:04:54;99583.91;;;28.11;56.48
59588;BME280;45412;54.472;18.464;2022-08-19T06:07:42;99591.38;;;28.35;56.68
59588;BME280;45412;54.472;18.464;2022-08-19T06:10:30;99594.94;;;28.87;55.29
59588;BME280;45412;54.472;18.464;2022-08-19T06:13:19;99599.59;;;29.17;52.99
59588;BME280;45412;54.472;18.464;2022-08-19T06:16:07;99596.38;;;29.44;52.19
59588;BME280;45412;54.472;18.464;2022-08-19T06:19:00;99592.65;;;29.53;51.42
59588;BME280;45412;54.472;18.464;2022-08-19T06:21:50;99592.00;;;29.40;51.52
59588;BME280;45412;54.472;18.464;2022-08-19T06:24:38;99591.91;;;29.37;51.56
59588;BME280;45412;54.472;18.464;2022-08-19T06:27:26;99585.08;;;29.72;50.58
59588;BME280;45412;54.472;18.464;2022-08-19T06:30:14;99591.77;;;29.26;50.14
59588;BME280;45412;54.472;18.464;2022-08-19T06:33:03;99589.89;;;28.90;51.16
59588;BME280;45412;54.472;18.464;2022-08-19T06:35:51;99596.64;;;28.58;51.88
59588;BME280;45412;54.472;18.464;2022-08-19T06:38:39;99592.98;;;28.25;52.35
59588;BME280;45412;54.472;18.464;2022-08-19T06:41:31;99589.46;;;28.48;52.30
59588;BME280;45412;54.472;18.464;2022-08-19T06:44:27;99592.98;;;28.87;51.58
59588;BME280;45412;54.472;18.464;2022-08-19T06:47:20;99585.77;;;29.46;49.97
59588;BME280;45412;54.472;18.464;2022-08-19T06:50:15;99587.70;;;29.91;47.65
59588;BME280;45412;54.472;18.464;2022-08-19T06:53:05;99591.24;;;30.23;47.01
59588;BME280;45412;54.472;18.464;2022-08-19T06:55:53;99584.70;;;30.67;45.57
59588;BME280;45412;54.472;18.464;2022-08-19T06:58:48;99585.38;;;31.11;44.33
59588;BME280;45412;54.472;18.464;2022-08-19T07:01:48;99576.40;;;31.44;43.61
59588;BME280;45412;54.472;18.464;2022-08-19T07:04:37;99574.60;;;31.80;42.22
59588;BME280;45412;54.472;18.464;2022-08-19T07:07:29;99570.18;;;32.12;42.15
59588;BME280;45412;54.472;18.464;2022-08-19T07:10:20;99572.98;;;32.47;41.45
59588;BME280;45412;54.472;18.464;2022-08-19T07:13:12;99573.98;;;32.75;41.30
59588;BME280;45412;54.472;18.464;2022-08-19T07:16:07;99572.88;;;32.96;40.41
59588;BME280;45412;54.472;18.464;2022-08-19T07:18:56;99572.58;;;33.17;40.00
59588;BME280;45412;54.472;18.464;2022-08-19T07:21:45;99573.41;;;33.20;39.63
59588;BME280;45412;54.472;18.464;2022-08-19T07:24:35;99568.73;;;33.47;39.86
59588;BME280;45412;54.472;18.464;2022-08-19T07:27:23;99568.95;;;34.03;39.43
59588;BME280;45412;54.472;18.464;2022-08-19T07:30:12;99570.76;;;34.36;37.79
59588;BME280;45412;54.472;18.464;2022-08-19T07:33:00;99575.95;;;34.48;37.65
59588;BME280;45412;54.472;18.464;2022-08-19T07:35:50;99577.05;;;34.48;37.30
59588;BME280;45412;54.472;18.464;2022-08-19T07:38:44;99573.43;;;34.58;37.70
59588;BME280;45412;54.472;18.464;2022-08-19T07:41:36;99573.96;;;34.71;37.28
59588;BME280;45412;54.472;18.464;2022-08-19T07:44:25;99565.25;;;34.34;36.95
59588;BME280;45412;54.472;18.464;2022-08-19T07:47:13;99570.11;;;34.25;37.42
59588;BME280;45412;54.472;18.464;2022-08-19T07:50:23;99565.88;;;34.46;37.34
59588;BME280;45412;54.472;18.464;2022-08-19T07:53:11;99564.34;;;34.50;36.59
59588;BME280;45412;54.472;18.464;2022-08-19T07:56:01;99565.11;;;34.30;36.49
59588;BME280;45412;54.472;18.464;2022-08-19T07:58:52;99560.98;;;33.91;37.02
59588;BME280;45412;54.472;18.464;2022-08-19T08:01:45;99552.70;;;33.63;37.30
59588;BME280;45412;54.472;18.464;2022-08-19T08:04:34;99554.48;;;33.53;37.63
59588;BME280;45412;54.472;18.464;2022-08-19T08:07:41;99557.88;;;33.55;37.54
59588;BME280;45412;54.472;18.464;2022-08-19T08:10:48;99555.96;;;33.62;37.66
59588;BME280;45412;54.472;18.464;2022-08-19T08:13:43;99559.52;;;33.79;37.71
59588;BME280;45412;54.472;18.464;2022-08-19T08:16:37;99557.88;;;34.02;37.21
59588;BME280;45412;54.472;18.464;2022-08-19T08:19:34;99556.98;;;34.11;37.35
59588;BME280;45412;54.472;18.464;2022-08-19T08:22:24;99556.90;;;34.28;36.89
59588;BME280;45412;54.472;18.464;2022-08-19T08:25:32;99554.81;;;34.53;36.74
59588;BME280;45412;54.472;18.464;2022-08-19T08:28:22;99554.52;;;34.59;36.42
59588;BME280;45412;54.472;18.464;2022-08-19T08:31:12;99552.76;;;34.70;36.86
59588;BME280;45412;54.472;18.464;2022-08-19T08:34:00;99552.11;;;34.40;36.94
59588;BME280;45412;54.472;18.464;2022-08-19T08:36:49;99548.44;;;34.37;37.27
59588;BME280;45412;54.472;18.464;2022-08-19T08:39:38;99548.13;;;34.13;37.45
59588;BME280;45412;54.472;18.464;2022-08-19T08:42:34;99547.95;;;33.64;37.83
59588;BME280;45412;54.472;18.464;2022-08-19T08:45:24;99543.27;;;33.17;39.05
59588;BME280;45412;54.472;18.464;2022-08-19T08:48:47;99544.58;;;33.21;40.08
59588;BME280;45412;54.472;18.464;2022-08-19T08:51:48;99544.42;;;33.34;39.63
59588;BME280;45412;54.472;18.464;2022-08-19T08:54:49;99543.66;;;33.35;39.83
59588;BME280;45412;54.472;18.464;2022-08-19T09:00:41;99537.23;;;33.92;39.51
59588;BME280;45412;54.472;18.464;2022-08-19T09:03:30;99536.91;;;34.94;37.94
59588;BME280;45412;54.472;18.464;2022-08-19T09:06:32;99536.31;;;35.84;36.76
59588;BME280;45412;54.472;18.464;2022-08-19T09:09:50;99532.98;;;36.69;34.64
59588;BME280;45412;54.472;18.464;2022-08-19T09:16:24;99529.02;;;39.03;30.36
59588;BME280;45412;54.472;18.464;2022-08-19T09:19:15;99520.34;;;39.72;29.78
59588;BME280;45412;54.472;18.464;2022-08-19T09:22:08;99508.24;;;40.29;29.02
59588;BME280;45412;54.472;18.464;2022-08-19T09:24:57;99512.60;;;40.57;28.68
59588;BME280;45412;54.472;18.464;2022-08-19T09:27:45;99512.27;;;40.95;28.54
59588;BME280;45412;54.472;18.464;2022-08-19T09:30:40;99511.67;;;41.35;27.56
59588;BME280;45412;54.472;18.464;2022-08-19T09:33:28;99512.78;;;40.96;27.24
59588;BME280;45412;54.472;18.464;2022-08-19T09:36:20;99516.50;;;40.59;28.06
59588;BME280;45412;54.472;18.464;2022-08-19T09:39:21;99512.17;;;40.85;28.21
59588;BME280;45412;54.472;18.464;2022-08-19T09:42:10;99504.27;;;41.11;27.70
59588;BME280;45412;54.472;18.464;2022-08-19T09:45:06;99502.27;;;41.47;27.19
59588;BME280;45412;54.472;18.464;2022-08-19T09:47:57;99500.02;;;41.79;27.18
59588;BME280;45412;54.472;18.464;2022-08-19T09:50:44;99498.48;;;41.78;26.47
59588;BME280;45412;54.472;18.464;2022-08-19T09:53:39;99495.83;;;41.82;26.33
59588;BME280;45412;54.472;18.464;2022-08-19T09:56:27;99496.52;;;41.99;26.18
59588;BME280;45412;54.472;18.464;2022-08-19T09:59:15;99498.36;;;42.11;26.18
59588;BME280;45412;54.472;18.464;2022-08-19T10:02:03;99496.98;;;42.28;26.11
59588;BME280;45412;54.472;18.464;2022-08-19T10:04:57;99491.63;;;42.49;25.92
59588;BME280;45412;54.472;18.464;2022-08-19T10:08:17;99493.77;;;42.72;25.50
59588;BME280;45412;54.472;18.464;2022-08-19T10:11:08;99495.69;;;42.83;25.52
59588;BME280;45412;54.472;18.464;2022-08-19T10:14:17;99494.33;;;43.12;25.44
59588;BME280;45412;54.472;18.464;2022-08-19T10:17:09;99487.70;;;42.81;25.17
59588;BME280;45412;54.472;18.464;2022-08-19T10:20:06;99481.97;;;41.98;26.34
59588;BME280;45412;54.472;18.464;2022-08-19T10:22:54;99479.55;;;41.44;26.77
59588;BME280;45412;54.472;18.464;2022-08-19T10:25:42;99476.27;;;40.84;28.16
59588;BME280;45412;54.472;18.464;2022-08-19T10:28:36;99471.18;;;40.26;28.43
59588;BME280;45412;54.472;18.464;2022-08-19T10:31:34;99467.27;;;39.24;29.83
59588;BME280;45412;54.472;18.464;2022-08-19T10:34:42;99464.38;;;38.34;31.25
59588;BME280;45412;54.472;18.464;2022-08-19T10:37:36;99460.79;;;37.72;32.39
59588;BME280;45412;54.472;18.464;2022-08-19T10:40:43;99455.09;;;37.21;33.13
59588;BME280;45412;54.472;18.464;2022-08-19T10:43:31;99458.46;;;36.79;33.87
59588;BME280;45412;54.472;18.464;2022-08-19T10:46:18;99455.48;;;36.29;34.66
59588;BME280;45412;54.472;18.464;2022-08-19T10:49:10;99454.89;;;36.09;35.38
59588;BME280;45412;54.472;18.464;2022-08-19T10:51:58;99456.84;;;35.97;35.49
59588;BME280;45412;54.472;18.464;2022-08-19T10:55:08;99447.58;;;35.85;35.74
59588;BME280;45412;54.472;18.464;2022-08-19T10:58:20;99448.23;;;35.98;35.27
59588;BME280;45412;54.472;18.464;2022-08-19T11:01:10;99442.28;;;36.21;34.77
59588;BME280;45412;54.472;18.464;2022-08-19T11:03:58;99435.48;;;36.47;34.10
59588;BME280;45412;54.472;18.464;2022-08-19T11:06:50;99433.13;;;37.11;33.06
59588;BME280;45412;54.472;18.464;2022-08-19T11:09:44;99426.19;;;37.70;32.48
59588;BME280;45412;54.472;18.464;2022-08-19T11:12:33;99426.26;;;38.40;31.47
59588;BME280;45412;54.472;18.464;2022-08-19T11:15:23;99422.02;;;38.86;30.84
59588;BME280;45412;54.472;18.464;2022-08-19T11:18:16;99413.52;;;38.92;30.17
59588;BME280;45412;54.472;18.464;2022-08-19T11:24:46;99403.73;;;39.41;29.24
59588;BME280;45412;54.472;18.464;2022-08-19T11:29:06;99397.87;;;39.40;29.20
59588;BME280;45412;54.472;18.464;2022-08-19T11:32:34;99394.19;;;39.24;29.81
59588;BME280;45412;54.472;18.464;2022-08-19T11:35:23;99392.52;;;39.30;29.88
59588;BME280;45412;54.472;18.464;2022-08-19T11:38:12;99398.27;;;39.38;30.31
59588;BME280;45412;54.472;18.464;2022-08-19T11:46:10;99396.19;;;38.70;30.61
59588;BME280;45412;54.472;18.464;2022-08-19T11:49:03;99393.86;;;38.35;31.10
59588;BME280;45412;54.472;18.464;2022-08-19T11:51:54;99388.15;;;38.14;31.87
59588;BME280;45412;54.472;18.464;2022-08-19T11:54:42;99381.89;;;37.91;32.04
59588;BME280;45412;54.472;18.464;2022-08-19T11:57:37;99372.73;;;37.79;32.21
59588;BME280;45412;54.472;18.464;2022-08-19T12:00:48;99366.15;;;37.36;32.78
59588;BME280;45412;54.472;18.464;2022-08-19T12:03:37;99359.82;;;36.98;33.57
59588;BME280;45412;54.472;18.464;2022-08-19T12:06:38;99362.55;;;36.40;33.79
59588;BME280;45412;54.472;18.464;2022-08-19T12:09:45;99360.70;;;35.96;34.47
59588;BME280;45412;54.472;18.464;2022-08-19T12:12:46;99355.54;;;35.61;35.32
59588;BME280;45412;54.472;18.464;2022-08-19T12:15:47;99356.41;;;35.20;36.36
59588;BME280;45412;54.472;18.464;2022-08-19T12:18:54;99357.89;;;34.58;37.43
59588;BME280;45412;54.472;18.464;2022-08-19T12:22:03;99362.13;;;34.09;38.57
59588;BME280;45412;54.472;18.464;2022-08-19T12:24:55;99354.67;;;33.95;39.26
59588;BME280;45412;54.472;18.464;2022-08-19T12:27:45;99354.77;;;33.78;39.36
59588;BME280;45412;54.472;18.464;2022-08-19T12:30:43;99357.98;;;33.57;39.67
59588;BME280;45412;54.472;18.464;2022-08-19T12:33:32;99352.79;;;33.32;39.89
59588;BME280;45412;54.472;18.464;2022-08-19T12:36:23;99358.84;;;33.14;40.50
59588;BME280;45412;54.472;18.464;2022-08-19T12:39:14;99359.58;;;33.03;41.15
59588;BME280;45412;54.472;18.464;2022-08-19T12:42:06;99361.68;;;33.02;41.10
59588;BME280;45412;54.472;18.464;2022-08-19T12:45:00;99358.17;;;32.90;41.14
59588;BME280;45412;54.472;18.464;2022-08-19T12:47:47;99348.56;;;32.76;40.98
59588;BME280;45412;54.472;18.464;2022-08-19T12:50:41;99344.47;;;32.61;41.45
59588;BME280;45412;54.472;18.464;2022-08-19T12:53:32;99343.41;;;32.43;41.92
59588;BME280;45412;54.472;18.464;2022-08-19T12:56:26;99339.45;;;32.30;42.34
59588;BME280;45412;54.472;18.464;2022-08-19T12:59:15;99338.91;;;32.24;42.49
59588;BME280;45412;54.472;18.464;2022-08-19T13:02:10;99331.70;;;32.24;42.73
59588;BME280;45412;54.472;18.464;2022-08-19T13:05:00;99329.02;;;32.20;42.59
59588;BME280;45412;54.472;18.464;2022-08-19T13:07:55;99327.82;;;32.07;42.75
59588;BME280;45412;54.472;18.464;2022-08-19T13:10:43;99320.97;;;31.93;43.34
59588;BME280;45412;54.472;18.464;2022-08-19T13:13:31;99316.45;;;31.78;43.54
59588;BME280;45412;54.472;18.464;2022-08-19T13:16:20;99308.41;;;31.80;43.78
59588;BME280;45412;54.472;18.464;2022-08-19T13:19:08;99310.87;;;31.88;43.73
59588;BME280;45412;54.472;18.464;2022-08-19T13:21:58;99313.48;;;31.83;43.39
59588;BME280;45412;54.472;18.464;2022-08-19T13:24:47;99313.29;;;31.85;43.55
59588;BME280;45412;54.472;18.464;2022-08-19T13:27:36;99311.41;;;32.07;43.58
59588;BME280;45412;54.472;18.464;2022-08-19T13:30:24;99312.58;;;32.17;43.23
59588;BME280;45412;54.472;18.464;2022-08-19T13:33:31;99311.53;;;32.30;43.08
59588;BME280;45412;54.472;18.464;2022-08-19T13:36:20;99311.58;;;32.30;43.07
59588;BME280;45412;54.472;18.464;2022-08-19T13:39:09;99305.78;;;32.35;42.94
59588;BME280;45412;54.472;18.464;2022-08-19T13:41:56;99297.34;;;32.28;42.69
59588;BME280;45412;54.472;18.464;2022-08-19T13:44:53;99305.55;;;32.25;43.61
59588;BME280;45412;54.472;18.464;2022-08-19T13:47:41;99299.23;;;32.37;43.65
59588;BME280;45412;54.472;18.464;2022-08-19T13:50:33;99294.92;;;32.49;43.66
59588;BME280;45412;54.472;18.464;2022-08-19T13:53:23;99291.61;;;32.51;43.80
59588;BME280;45412;54.472;18.464;2022-08-19T13:56:18;99290.84;;;32.39;43.76
59588;BME280;45412;54.472;18.464;2022-08-19T13:59:14;99293.36;;;32.17;44.08
59588;BME280;45412;54.472;18.464;2022-08-19T14:02:04;99289.81;;;32.01;44.66
59588;BME280;45412;54.472;18.464;2022-08-19T14:04:53;99288.70;;;31.88;45.13
59588;BME280;45412;54.472;18.464;2022-08-19T14:07:45;99288.84;;;31.78;45.57
59588;BME280;45412;54.472;18.464;2022-08-19T14:10:33;99290.56;;;31.60;45.48
59588;BME280;45412;54.472;18.464;2022-08-19T14:13:24;99285.73;;;31.42;46.18
59588;BME280;45412;54.472;18.464;2022-08-19T14:16:14;99282.50;;;31.31;45.99
59588;BME280;45412;54.472;18.464;2022-08-19T14:19:02;99278.92;;;31.38;46.16
59588;BME280;45412;54.472;18.464;2022-08-19T14:21:51;99280.06;;;31.48;46.17
59588;BME280;45412;54.472;18.464;2022-08-19T14:24:38;99275.00;;;31.58;46.01
59588;BME280;45412;54.472;18.464;2022-08-19T14:27:35;99273.64;;;31.65;46.09
59588;BME280;45412;54.472;18.464;2022-08-19T14:30:29;99271.98;;;31.67;46.07
59588;BME280;45412;54.472;18.464;2022-08-19T14:33:19;99270.95;;;31.62;46.21
59588;BME280;45412;54.472;18.464;2022-08-19T14:36:07;99269.84;;;31.48;46.32
59588;BME280;45412;54.472;18.464;2022-08-19T14:38:54;99276.56;;;31.38;46.24
59588;BME280;45412;54.472;18.464;2022-08-19T14:41:44;99278.16;;;31.33;46.74
59588;BME280;45412;54.472;18.464;2022-08-19T14:44:32;99276.11;;;31.41;46.87
59588;BME280;45412;54.472;18.464;2022-08-19T14:47:22;99273.63;;;31.52;46.38
59588;BME280;45412;54.472;18.464;2022-08-19T14:50:11;99274.67;;;31.52;46.23
59588;BME280;45412;54.472;18.464;2022-08-19T14:53:07;99273.73;;;31.50;44.08
59588;BME280;45412;54.472;18.464;2022-08-19T14:56:00;99269.95;;;31.49;43.00
59588;BME280;45412;54.472;18.464;2022-08-19T14:58:48;99277.23;;;31.50;41.98
59588;BME280;45412;54.472;18.464;2022-08-19T15:01:39;99274.40;;;31.46;41.09
59588;BME280;45412;54.472;18.464;2022-08-19T15:04:27;99270.28;;;31.44;40.27
59588;BME280;45412;54.472;18.464;2022-08-19T15:07:19;99262.20;;;31.45;39.53
59588;BME280;45412;54.472;18.464;2022-08-19T15:10:10;99263.05;;;31.41;39.67
59588;BME280;45412;54.472;18.464;2022-08-19T15:12:59;99257.20;;;31.45;39.66
59588;BME280;45412;54.472;18.464;2022-08-19T15:15:47;99251.54;;;31.48;39.71